Jersey Airport

Airport
ICAO code: 
EGJJ
IATA Code: 
JER
Summary
ICAO Region: 
EUR
Territory: 
Location: 
Saint Peter, Jersey
Serving: 
St Hellier
Elevation: 
277 ft
Coordinates: 
Aerial View: 
49° 12' 25.937" N, 2° 11' 40.99" W
Metar
Observation
EGJJ 260420Z AUTO 17003KT 6000 BKN026/// OVC029/// 04/03 Q1034
Station
Jersey Airport
Date/Time
2022-01-26 04:20:00
Wind direction
170°
Wind speed
03 kts
Lowest cloud amount
broken clouds
Temperature
4°C
Dew point
3°C
Humidity
93%
QNH
1034 hPa
Weather condition
n/a

Description

The only airport on the Channel Island of Jersey, a self-governing British Crown Dependency.

Climatology

Temperate Marine climate/Oceanic climate (Köppen climate classification Cfb). Moderately cool summer and comparatively warm winter with a temperature range of only 14°C. Prevailing south-westerly winds from the Atlantic Ocean.

Runways

Designator Length Width Surface Rops
9/27 1706 46 ASP Yes/Yes
Airport map: 
Aerial View: 

SKYbrary Partners:

Safety knowledge contributed by: